Time;durP1;ratioP1;P1;durP2;ratioP2;P2;SDS_P1;SDS_P2;PMS_P1;PMS_P2;Temp;Humidity;BMP_temperature;BMP_pressure;BME280_temperature;BME280_humidity;BME280_pressure;Samples;Min_cycle;Max_cycle;Signal;HPM_P1;HPM_P2
2021/10/04 00:00:51;;;;;;;1.10;1.00;;;15.20;99.90;;;;;;4983570;28;20479;-83
2021/10/04 00:03:19;;;;;;;0.90;0.90;;;15.00;99.90;;;;;;4982047;28;20471;-82
2021/10/04 00:05:46;;;;;;;2.03;0.90;;;15.10;99.90;;;;;;4983406;28;20487;-82
2021/10/04 00:08:12;;;;;;;1.00;1.00;;;15.20;99.90;;;;;;4981984;28;20808;-83
2021/10/04 00:10:40;;;;;;;1.00;1.00;;;15.20;99.90;;;;;;4981666;28;20456;-83
2021/10/04 00:13:07;;;;;;;1.90;1.10;;;15.00;99.90;;;;;;4981651;28;20808;-83
2021/10/04 00:15:34;;;;;;;1.13;1.07;;;14.80;99.90;;;;;;4981142;28;20459;-82
2021/10/04 00:18:01;;;;;;;1.20;1.10;;;14.60;99.90;;;;;;4981401;28;20452;-82
2021/10/04 00:20:30;;;;;;;0.77;0.77;;;14.40;99.90;;;;;;4981354;28;20467;-82
2021/10/04 00:22:59;;;;;;;1.10;1.00;;;14.30;99.90;;;;;;4980949;28;20464;-80
2021/10/04 00:25:26;;;;;;;1.10;1.00;;;14.10;99.90;;;;;;4977654;28;20487;-80
2021/10/04 00:27:52;;;;;;;0.97;0.50;;;14.10;99.90;;;;;;4977864;28;20459;-80
2021/10/04 00:30:20;;;;;;;0.80;0.80;;;14.30;99.90;;;;;;4978063;28;20821;-80
2021/10/04 00:32:49;;;;;;;3.80;1.47;;;14.50;99.90;;;;;;4977827;28;20496;-80
2021/10/04 00:35:18;;;;;;;1.23;1.20;;;14.60;99.90;;;;;;4977339;28;20831;-80
2021/10/04 00:37:46;;;;;;;0.80;0.70;;;14.60;99.90;;;;;;4977893;28;20481;-80
2021/10/04 00:40:16;;;;;;;1.10;1.10;;;14.60;99.90;;;;;;4977821;28;20448;-80
2021/10/04 00:42:43;;;;;;;1.47;1.17;;;14.70;99.90;;;;;;4977349;28;20483;-80
2021/10/04 00:45:11;;;;;;;1.20;1.10;;;14.70;99.90;;;;;;4977637;28;20978;-81
2021/10/04 00:47:39;;;;;;;1.17;1.17;;;14.70;99.90;;;;;;4977461;28;20460;-80
2021/10/04 00:50:08;;;;;;;1.37;1.27;;;14.80;99.90;;;;;;4977495;28;20487;-80
2021/10/04 00:52:35;;;;;;;1.00;0.83;;;14.70;99.90;;;;;;4977427;28;20909;-80
2021/10/04 00:55:06;;;;;;;1.30;1.10;;;14.70;99.90;;;;;;4977806;28;20468;-80
2021/10/04 00:57:33;;;;;;;9.80;1.53;;;14.60;99.90;;;;;;4977393;28;20455;-80
2021/10/04 01:00:00;;;;;;;0.97;0.97;;;14.60;99.90;;;;;;4977428;28;20826;-80
2021/10/04 01:02:27;;;;;;;0.83;0.83;;;14.60;99.90;;;;;;4976772;28;21185;-80
2021/10/04 01:04:53;;;;;;;1.07;1.00;;;14.60;99.90;;;;;;4976932;28;20444;-80
2021/10/04 01:07:20;;;;;;;1.40;1.30;;;14.70;99.90;;;;;;4977424;28;20456;-80
2021/10/04 01:09:47;;;;;;;1.17;1.00;;;14.70;99.90;;;;;;4976915;28;21118;-80
2021/10/04 01:12:15;;;;;;;1.70;0.90;;;14.70;99.90;;;;;;4977107;28;20483;-80
2021/10/04 01:14:42;;;;;;;1.40;1.30;;;14.50;99.90;;;;;;4957995;28;20452;-80
2021/10/04 01:17:09;;;;;;;1.20;1.10;;;14.40;99.90;;;;;;4957799;29;20802;-80
2021/10/04 01:19:39;;;;;;;1.80;1.17;;;14.20;99.90;;;;;;4975103;28;20452;-79
2021/10/04 01:22:07;;;;;;;1.20;1.10;;;14.00;99.90;;;;;;4976671;28;20467;-80
2021/10/04 01:24:34;;;;;;;0.80;0.80;;;13.80;99.90;;;;;;4976420;28;20459;-79
2021/10/04 01:27:01;;;;;;;1.30;1.20;;;13.70;99.90;;;;;;4976394;28;20488;-78
2021/10/04 01:29:27;;;;;;;1.17;1.03;;;13.60;99.90;;;;;;4976455;28;20459;-80
2021/10/04 01:31:54;;;;;;;1.10;1.00;;;13.60;99.90;;;;;;4976393;28;20484;-79
2021/10/04 01:34:21;;;;;;;0.60;0.60;;;13.50;99.90;;;;;;4976799;28;20461;-80
2021/10/04 01:36:48;;;;;;;1.63;1.00;;;13.40;99.90;;;;;;4977242;28;20454;-79
2021/10/04 01:39:16;;;;;;;1.47;1.20;;;13.40;99.90;;;;;;4978654;28;20972;-79
2021/10/04 01:41:43;;;;;;;2.10;1.03;;;13.40;99.90;;;;;;4978009;28;20792;-80
2021/10/04 01:44:11;;;;;;;1.37;1.37;;;13.50;99.90;;;;;;4976441;28;20452;-81
2021/10/04 01:46:38;;;;;;;0.87;0.87;;;13.40;99.90;;;;;;4975659;28;21017;-82
2021/10/04 01:49:04;;;;;;;1.00;1.00;;;13.40;99.90;;;;;;4976358;28;20455;-79
2021/10/04 01:51:31;;;;;;;1.30;1.00;;;13.30;99.90;;;;;;4976153;28;20468;-80
2021/10/04 01:53:58;;;;;;;0.90;0.90;;;13.30;99.90;;;;;;4977653;28;20472;-79
2021/10/04 01:56:26;;;;;;;1.10;0.90;;;13.30;99.90;;;;;;4977358;28;20459;-78
2021/10/04 01:58:53;;;;;;;0.80;0.80;;;13.20;99.90;;;;;;4978089;28;20452;-78
2021/10/04 02:01:20;;;;;;;2.60;1.00;;;13.20;99.90;;;;;;4976492;28;20953;-80
2021/10/04 02:03:47;;;;;;;1.47;0.90;;;13.20;99.90;;;;;;4976436;28;20486;-79
2021/10/04 02:06:13;;;;;;;1.20;1.10;;;13.20;99.90;;;;;;4976012;28;20491;-79
2021/10/04 02:08:40;;;;;;;0.90;0.90;;;13.20;99.90;;;;;;4975967;28;20841;-81
2021/10/04 02:11:07;;;;;;;1.40;0.90;;;13.10;99.90;;;;;;4976008;28;20459;-79
2021/10/04 02:13:36;;;;;;;0.80;0.80;;;13.20;99.90;;;;;;4976117;28;20847;-79
2021/10/04 02:16:03;;;;;;;1.57;1.00;;;13.10;99.90;;;;;;4975427;28;20444;-79
2021/10/04 02:18:30;;;;;;;0.87;0.80;;;13.10;99.90;;;;;;4975984;28;20456;-79
2021/10/04 02:20:57;;;;;;;2.37;0.80;;;13.10;99.90;;;;;;4975769;28;20463;-82
2021/10/04 02:23:24;;;;;;;0.60;0.60;;;12.90;99.90;;;;;;4976259;28;20468;-79
2021/10/04 02:25:52;;;;;;;1.03;0.80;;;12.80;99.90;;;;;;4975195;28;20488;-81
2021/10/04 02:28:19;;;;;;;1.00;0.90;;;12.60;99.90;;;;;;4975571;28;20467;-82
2021/10/04 02:30:48;;;;;;;0.60;0.60;;;12.60;99.90;;;;;;4975640;28;20460;-81
2021/10/04 02:33:15;;;;;;;1.80;0.90;;;12.50;99.90;;;;;;4975293;28;20471;-82
2021/10/04 02:35:42;;;;;;;2.17;0.87;;;12.40;99.90;;;;;;4975433;28;20463;-81
2021/10/04 02:38:09;;;;;;;1.00;1.00;;;12.40;99.90;;;;;;4975696;28;20459;-81
2021/10/04 02:40:36;;;;;;;0.67;0.67;;;12.40;99.90;;;;;;4975836;28;20460;-82
2021/10/04 02:43:03;;;;;;;0.77;0.70;;;12.30;99.90;;;;;;4971158;28;20479;-79
2021/10/04 02:45:29;;;;;;;1.37;0.80;;;12.30;99.90;;;;;;4966088;28;20459;-81
2021/10/04 02:48:00;;;;;;;1.00;0.90;;;12.20;99.90;;;;;;4965656;28;20465;-81
2021/10/04 02:50:28;;;;;;;1.63;1.00;;;12.10;99.90;;;;;;4966879;28;20455;-81
2021/10/04 02:52:55;;;;;;;1.57;0.93;;;12.00;99.90;;;;;;4960524;28;20479;-80
2021/10/04 02:55:22;;;;;;;1.20;1.10;;;12.00;99.90;;;;;;4969350;28;20456;-81
2021/10/04 02:57:49;;;;;;;1.50;1.40;;;12.00;99.90;;;;;;4966152;28;20456;-81
2021/10/04 03:00:17;;;;;;;0.77;0.77;;;12.00;99.90;;;;;;4967563;28;20451;-81
2021/10/04 03:02:44;;;;;;;0.70;0.70;;;12.00;99.90;;;;;;4967406;28;20467;-81
2021/10/04 03:05:13;;;;;;;1.40;1.20;;;12.10;99.90;;;;;;4974029;28;20462;-81
2021/10/04 03:07:39;;;;;;;1.10;1.00;;;12.20;99.90;;;;;;4974515;28;20500;-81
2021/10/04 03:10:07;;;;;;;0.83;0.73;;;12.30;99.90;;;;;;4968978;28;20985;-81
2021/10/04 03:12:34;;;;;;;1.40;1.00;;;12.30;99.90;;;;;;4968869;28;20472;-80
2021/10/04 03:15:00;;;;;;;1.53;0.90;;;12.20;99.90;;;;;;4955514;28;20456;-81
2021/10/04 03:17:27;;;;;;;0.77;0.70;;;12.30;99.90;;;;;;4955916;28;20437;-81
2021/10/04 03:19:54;;;;;;;0.70;0.70;;;12.20;99.90;;;;;;4967232;28;20495;-80
2021/10/04 03:22:22;;;;;;;1.13;1.03;;;12.40;99.90;;;;;;4975078;28;20483;-82
2021/10/04 03:24:49;;;;;;;1.53;1.17;;;12.30;99.90;;;;;;4974789;28;20458;-82
2021/10/04 03:27:16;;;;;;;1.07;1.07;;;12.40;99.90;;;;;;4975017;28;20490;-82
2021/10/04 03:29:43;;;;;;;0.70;0.70;;;12.50;99.90;;;;;;4974970;28;20451;-82
2021/10/04 03:32:10;;;;;;;1.23;1.20;;;12.40;99.90;;;;;;4975238;28;21012;-82
2021/10/04 03:34:37;;;;;;;0.80;0.80;;;12.40;99.90;;;;;;4975402;28;20452;-82
2021/10/04 03:37:04;;;;;;;1.10;1.00;;;12.40;99.90;;;;;;4974486;28;20478;-81
2021/10/04 03:39:32;;;;;;;1.50;1.00;;;12.40;99.90;;;;;;4975134;28;20463;-81
2021/10/04 03:41:59;;;;;;;1.20;0.90;;;12.50;99.90;;;;;;4975062;28;20507;-81
2021/10/04 03:44:26;;;;;;;1.03;0.90;;;12.70;99.90;;;;;;4974364;28;20450;-81
2021/10/04 03:46:53;;;;;;;1.20;1.10;;;12.70;99.90;;;;;;4974574;28;20498;-81
2021/10/04 03:49:19;;;;;;;1.67;1.57;;;12.80;99.90;;;;;;4974528;28;20458;-81
2021/10/04 03:51:46;;;;;;;0.90;0.90;;;12.90;99.90;;;;;;4974137;28;20466;-81
2021/10/04 03:54:13;;;;;;;1.23;1.20;;;13.00;99.90;;;;;;4975075;28;20448;-81
2021/10/04 03:56:41;;;;;;;1.07;1.00;;;13.10;99.90;;;;;;4974188;28;20451;-81
2021/10/04 03:59:08;;;;;;;1.37;1.30;;;13.10;99.90;;;;;;4974870;28;20456;-81
2021/10/04 04:01:35;;;;;;;1.60;1.50;;;13.10;99.90;;;;;;4975171;28;20454;-81
2021/10/04 04:04:01;;;;;;;1.30;1.17;;;13.00;99.90;;;;;;4978041;28;21002;-81
2021/10/04 04:06:28;;;;;;;1.10;0.90;;;13.10;99.90;;;;;;4978514;28;21031;-81
2021/10/04 04:08:55;;;;;;;0.93;0.93;;;13.10;99.90;;;;;;4978461;28;20451;-81
2021/10/04 04:11:21;;;;;;;0.90;0.90;;;13.20;99.90;;;;;;4978421;28;20444;-81
2021/10/04 04:13:50;;;;;;;1.10;1.00;;;13.10;99.90;;;;;;4978409;28;20471;-82
2021/10/04 04:16:16;;;;;;;1.30;0.90;;;13.10;99.90;;;;;;4977724;28;20474;-82
2021/10/04 04:18:43;;;;;;;0.90;0.90;;;13.10;99.90;;;;;;4978022;28;20452;-81
2021/10/04 04:21:10;;;;;;;1.30;1.20;;;13.10;99.90;;;;;;4978039;28;20559;-83
2021/10/04 04:23:37;;;;;;;1.03;1.03;;;13.20;99.90;;;;;;4978113;28;20529;-81
2021/10/04 04:26:03;;;;;;;2.50;2.30;;;13.30;99.90;;;;;;4977484;28;20486;-81
2021/10/04 04:28:30;;;;;;;1.30;1.20;;;13.30;99.90;;;;;;4977909;28;20466;-82
2021/10/04 04:30:58;;;;;;;2.13;1.90;;;13.30;99.90;;;;;;4977627;28;20451;-82
2021/10/04 04:33:25;;;;;;;1.60;1.33;;;13.30;99.90;;;;;;4977585;28;20468;-82
2021/10/04 04:35:52;;;;;;;1.50;1.40;;;13.30;99.90;;;;;;4977588;28;20463;-80
2021/10/04 04:38:18;;;;;;;0.80;0.80;;;13.30;99.90;;;;;;4977829;28;20455;-82
2021/10/04 04:40:45;;;;;;;2.87;1.53;;;13.30;99.90;;;;;;4978238;28;20454;-81
2021/10/04 04:43:12;;;;;;;1.17;1.07;;;13.20;99.90;;;;;;4977707;28;20479;-82
2021/10/04 04:45:39;;;;;;;1.60;1.00;;;13.10;99.90;;;;;;4977160;28;20502;-82
2021/10/04 04:48:07;;;;;;;1.90;1.27;;;13.10;99.90;;;;;;4977212;28;20859;-82
2021/10/04 04:50:34;;;;;;;3.27;1.40;;;13.10;99.90;;;;;;4977544;28;20451;-80
2021/10/04 04:53:01;;;;;;;0.93;0.93;;;13.20;99.90;;;;;;4977332;28;20483;-82
2021/10/04 04:55:28;;;;;;;1.87;1.77;;;13.30;99.90;;;;;;4977155;28;20451;-82
2021/10/04 04:57:54;;;;;;;1.27;1.17;;;13.30;99.90;;;;;;4977719;28;20458;-82
2021/10/04 05:00:21;;;;;;;1.63;1.30;;;13.10;99.90;;;;;;4977457;28;20466;-82
2021/10/04 05:02:48;;;;;;;2.07;1.63;;;13.00;99.90;;;;;;4977197;28;20468;-82
2021/10/04 05:05:18;;;;;;;1.67;1.43;;;12.90;99.90;;;;;;4976893;28;20451;-83
2021/10/04 05:07:45;;;;;;;1.60;1.50;;;12.90;99.90;;;;;;4977301;28;20475;-83
2021/10/04 05:10:13;;;;;;;1.90;1.77;;;12.90;99.90;;;;;;4976919;28;20455;-82
2021/10/04 05:12:40;;;;;;;2.40;1.90;;;12.80;99.90;;;;;;4976795;28;20478;-82
2021/10/04 05:15:07;;;;;;;1.20;1.10;;;12.80;99.90;;;;;;4976237;28;20460;-81
2021/10/04 05:17:35;;;;;;;2.80;1.50;;;12.80;99.90;;;;;;4976810;28;20450;-83
2021/10/04 05:20:02;;;;;;;1.83;1.73;;;12.80;99.90;;;;;;4976946;28;20456;-83
2021/10/04 05:22:30;;;;;;;1.40;1.30;;;13.00;99.90;;;;;;4976801;28;20491;-82
2021/10/04 05:24:56;;;;;;;1.10;1.00;;;13.10;99.90;;;;;;4976661;28;20456;-82
2021/10/04 05:27:23;;;;;;;1.50;1.40;;;13.00;99.90;;;;;;4976829;28;20900;-82
2021/10/04 05:29:50;;;;;;;1.70;1.60;;;12.80;99.90;;;;;;4976840;28;20444;-81
2021/10/04 05:32:16;;;;;;;1.50;1.40;;;12.50;99.90;;;;;;4976687;28;20479;-80
2021/10/04 05:34:43;;;;;;;2.93;1.40;;;12.40;99.90;;;;;;4976446;28;20452;-82
2021/10/04 05:37:10;;;;;;;2.17;1.30;;;12.30;99.90;;;;;;4976436;28;20459;-83
2021/10/04 05:39:38;;;;;;;1.67;1.40;;;12.10;99.90;;;;;;4976646;28;20816;-82
2021/10/04 05:42:06;;;;;;;2.30;2.10;;;12.10;99.90;;;;;;4976021;28;20486;-81
2021/10/04 05:44:32;;;;;;;3.37;1.87;;;12.10;99.90;;;;;;4976094;28;20462;-81
2021/10/04 05:46:59;;;;;;;1.43;1.33;;;12.00;99.90;;;;;;4975868;28;20494;-81
2021/10/04 05:49:26;;;;;;;1.33;1.23;;;11.80;99.90;;;;;;4976516;28;20455;-83
2021/10/04 05:51:53;;;;;;;3.33;1.20;;;11.90;99.90;;;;;;4976556;28;20454;-82
2021/10/04 05:54:21;;;;;;;1.80;1.60;;;11.90;99.90;;;;;;4976132;28;20852;-81
2021/10/04 05:56:50;;;;;;;1.40;1.30;;;11.90;99.90;;;;;;4975948;28;21133;-83
2021/10/04 05:59:16;;;;;;;1.30;1.20;;;11.90;99.90;;;;;;4975528;28;20467;-82
2021/10/04 06:01:43;;;;;;;2.20;1.40;;;12.00;99.90;;;;;;4976177;28;20936;-82
2021/10/04 06:04:10;;;;;;;2.20;1.67;;;12.20;99.90;;;;;;4976218;28;20816;-83
2021/10/04 06:06:37;;;;;;;1.37;1.27;;;12.30;99.90;;;;;;4976155;28;20483;-81
2021/10/04 06:09:03;;;;;;;1.47;1.37;;;12.50;99.90;;;;;;4976851;28;20458;-80
2021/10/04 06:11:30;;;;;;;2.27;1.30;;;12.60;99.90;;;;;;4970936;28;20463;-78
2021/10/04 06:13:58;;;;;;;2.63;1.33;;;12.70;99.90;;;;;;4959633;28;20477;-80
2021/10/04 06:16:25;;;;;;;1.53;1.27;;;12.60;99.90;;;;;;4955817;28;20456;-80
2021/10/04 06:18:52;;;;;;;1.50;1.30;;;12.80;99.90;;;;;;4955580;28;20460;-80
2021/10/04 06:21:18;;;;;;;1.07;0.97;;;12.80;99.90;;;;;;4964143;28;21005;-80
2021/10/04 06:23:45;;;;;;;2.33;2.23;;;13.00;99.90;;;;;;4975016;28;22755;-84
2021/10/04 06:26:12;;;;;;;1.33;1.27;;;13.10;99.90;;;;;;4979009;28;20464;-84
2021/10/04 06:28:39;;;;;;;1.30;1.20;;;13.20;99.90;;;;;;4979355;28;20491;-84
2021/10/04 06:31:07;;;;;;;1.83;1.40;;;13.20;99.90;;;;;;4979479;28;20456;-83
2021/10/04 06:33:33;;;;;;;1.20;1.10;;;13.30;99.90;;;;;;4979618;28;20484;-83
2021/10/04 06:36:00;;;;;;;2.93;1.20;;;13.30;99.90;;;;;;4960039;28;20825;-84
2021/10/04 06:38:27;;;;;;;1.40;1.20;;;13.30;99.90;;;;;;4960041;29;20449;-84
2021/10/04 06:40:54;;;;;;;1.53;1.43;;;13.40;99.90;;;;;;4978619;28;20454;-82
2021/10/04 06:43:20;;;;;;;1.60;1.50;;;13.50;99.90;;;;;;4979687;28;20993;-83
2021/10/04 06:45:47;;;;;;;2.27;1.47;;;13.50;99.90;;;;;;4978744;28;21124;-83
2021/10/04 06:48:16;;;;;;;1.50;1.30;;;13.60;99.90;;;;;;4979441;28;20491;-81
2021/10/04 06:50:43;;;;;;;1.20;1.10;;;13.60;99.90;;;;;;4979081;28;20464;-83
2021/10/04 06:53:10;;;;;;;4.97;1.40;;;13.60;99.90;;;;;;4978572;28;20472;-81
2021/10/04 06:55:36;;;;;;;1.47;1.30;;;13.60;99.90;;;;;;4978639;28;20466;-84
2021/10/04 06:58:03;;;;;;;3.70;2.00;;;13.60;99.90;;;;;;4979147;28;20448;-84
2021/10/04 07:00:30;;;;;;;1.83;1.73;;;13.70;99.90;;;;;;4982200;28;20455;-79
2021/10/04 07:02:58;;;;;;;2.30;2.10;;;13.60;99.90;;;;;;4993473;28;20475;-80
2021/10/04 07:05:26;;;;;;;1.97;1.87;;;13.50;99.90;;;;;;4990462;28;20456;-81
2021/10/04 07:07:56;;;;;;;3.00;2.20;;;13.40;99.90;;;;;;4987990;28;20488;-81
2021/10/04 07:10:23;;;;;;;2.17;2.07;;;13.50;99.90;;;;;;4981382;28;20464;-83
2021/10/04 07:12:50;;;;;;;2.40;2.03;;;13.50;99.90;;;;;;4979607;28;20487;-84
2021/10/04 07:15:17;;;;;;;4.20;3.17;;;13.40;99.90;;;;;;4978903;28;20795;-84
2021/10/04 07:17:44;;;;;;;4.03;3.63;;;13.00;99.90;;;;;;4979287;28;20455;-86
2021/10/04 07:20:11;;;;;;;3.60;3.30;;;12.80;99.90;;;;;;4978914;28;20463;-82
2021/10/04 07:22:40;;;;;;;5.00;4.13;;;12.70;99.90;;;;;;4979177;28;20474;-85
2021/10/04 07:25:08;;;;;;;4.33;3.93;;;12.70;99.90;;;;;;4978269;28;20999;-84
2021/10/04 07:27:35;;;;;;;4.30;3.90;;;12.80;99.90;;;;;;4978836;28;20483;-83
2021/10/04 07:30:02;;;;;;;4.73;4.23;;;12.90;99.90;;;;;;4978896;28;20455;-85
2021/10/04 07:32:29;;;;;;;3.73;3.33;;;12.80;99.90;;;;;;4978451;28;20468;-83
2021/10/04 07:34:55;;;;;;;6.30;4.20;;;12.80;99.90;;;;;;4978987;28;20460;-85
2021/10/04 07:37:22;;;;;;;4.70;3.70;;;12.80;99.90;;;;;;4980382;28;20451;-86
2021/10/04 07:39:50;;;;;;;3.97;3.57;;;12.90;99.90;;;;;;4982649;28;20462;-85
2021/10/04 07:42:17;;;;;;;4.50;4.03;;;13.00;99.90;;;;;;4982634;28;20475;-85
2021/10/04 07:44:44;;;;;;;4.20;3.20;;;12.90;99.90;;;;;;4982480;28;20462;-85
2021/10/04 07:47:11;;;;;;;4.17;3.77;;;12.80;99.90;;;;;;4981938;28;20636;-85
2021/10/04 07:49:37;;;;;;;4.20;3.53;;;12.70;99.90;;;;;;4982109;28;20475;-85
2021/10/04 07:52:05;;;;;;;3.67;3.20;;;12.70;99.90;;;;;;4982169;28;20470;-85
2021/10/04 07:54:32;;;;;;;4.47;4.07;;;12.90;99.90;;;;;;4981571;28;20452;-85
2021/10/04 07:57:00;;;;;;;5.43;4.00;;;12.80;99.90;;;;;;4981474;28;20534;-85
2021/10/04 07:59:26;;;;;;;4.27;3.77;;;12.90;99.90;;;;;;4981313;28;20443;-85
2021/10/04 08:01:53;;;;;;;6.43;4.47;;;12.70;99.90;;;;;;4982247;28;20455;-83
2021/10/04 08:04:20;;;;;;;4.37;4.00;;;12.70;99.90;;;;;;4981943;28;20829;-85
2021/10/04 08:06:47;;;;;;;3.73;3.43;;;12.70;99.90;;;;;;4981604;28;20444;-86
2021/10/04 08:09:13;;;;;;;3.97;3.63;;;12.70;99.90;;;;;;4981827;28;20488;-86
2021/10/04 08:11:40;;;;;;;4.60;4.10;;;12.50;99.90;;;;;;4981786;28;20451;-85
2021/10/04 08:14:08;;;;;;;3.37;3.07;;;12.40;99.90;;;;;;4981464;28;20454;-85
2021/10/04 08:16:35;;;;;;;6.80;5.10;;;12.40;99.90;;;;;;4981055;28;20454;-85
2021/10/04 08:19:02;;;;;;;3.80;3.50;;;12.50;99.90;;;;;;4981807;28;20457;-85
2021/10/04 08:21:30;;;;;;;4.30;3.90;;;12.60;99.90;;;;;;4981154;28;20466;-86
2021/10/04 08:23:59;;;;;;;5.20;3.73;;;12.60;99.90;;;;;;4981450;28;20532;-85
2021/10/04 08:26:26;;;;;;;3.70;2.93;;;12.60;99.90;;;;;;4980774;28;20463;-86
2021/10/04 08:28:53;;;;;;;3.50;2.60;;;12.50;99.90;;;;;;4981736;28;20487;-86
2021/10/04 08:31:22;;;;;;;3.20;2.83;;;12.60;99.90;;;;;;4981270;28;20452;-85
2021/10/04 08:33:50;;;;;;;3.50;2.90;;;12.60;99.90;;;;;;4980585;28;20981;-86
2021/10/04 08:36:17;;;;;;;2.87;2.67;;;12.60;99.90;;;;;;4980892;28;20550;-86
2021/10/04 08:38:44;;;;;;;2.60;2.40;;;12.60;99.90;;;;;;4981542;28;20452;-85
2021/10/04 08:41:11;;;;;;;2.73;2.53;;;12.60;99.90;;;;;;4980812;28;20459;-83
2021/10/04 08:43:42;;;;;;;2.33;2.13;;;12.60;99.90;;;;;;4981107;28;20471;-86
2021/10/04 08:46:09;;;;;;;2.70;2.50;;;12.60;99.90;;;;;;4981034;28;20459;-84
2021/10/04 08:48:38;;;;;;;3.03;2.47;;;12.60;99.90;;;;;;4980887;28;20491;-85
2021/10/04 08:51:05;;;;;;;2.90;2.57;;;12.60;99.90;;;;;;4980950;28;20848;-82
2021/10/04 08:53:32;;;;;;;2.17;1.97;;;12.60;99.90;;;;;;4980728;28;20483;-85
2021/10/04 08:55:59;;;;;;;2.10;2.00;;;12.50;99.90;;;;;;4980838;28;20625;-86
2021/10/04 08:58:25;;;;;;;2.20;2.00;;;12.60;99.90;;;;;;4981121;28;20462;-84
2021/10/04 09:00:52;;;;;;;2.43;2.23;;;12.50;99.90;;;;;;4981257;28;20452;-85
2021/10/04 09:03:19;;;;;;;2.60;2.40;;;12.60;99.90;;;;;;4980940;28;20467;-83
2021/10/04 09:05:56;;;;;;;3.50;2.57;;;12.50;99.90;;;;;;4980698;28;20971;-84
2021/10/04 09:08:23;;;;;;;3.07;2.77;;;12.40;99.90;;;;;;4980550;28;20491;-83
2021/10/04 09:10:55;;;;;;;2.40;2.20;;;12.40;99.90;;;;;;4981042;28;20462;-85
2021/10/04 09:13:23;;;;;;;2.70;2.50;;;12.50;99.90;;;;;;4980865;28;20479;-84
2021/10/04 09:15:51;;;;;;;2.57;2.47;;;12.50;99.90;;;;;;4980341;28;20455;-84
2021/10/04 09:18:23;;;;;;;2.07;1.97;;;12.50;99.90;;;;;;4980754;28;20455;-85
2021/10/04 09:20:58;;;;;;;3.03;1.60;;;12.40;99.90;;;;;;4980397;28;20459;-85
2021/10/04 09:23:33;;;;;;;2.73;2.57;;;12.40;99.90;;;;;;4979171;28;20497;-82
2021/10/04 09:26:01;;;;;;;5.00;1.47;;;12.50;99.90;;;;;;4976200;28;20455;-85
2021/10/04 09:28:30;;;;;;;2.27;1.50;;;12.50;99.90;;;;;;4980378;28;20535;-83
2021/10/04 09:31:14;;;;;;;1.00;0.90;;;12.50;99.90;;;;;;4979979;28;20463;-85
2021/10/04 09:34:06;;;;;;;2.60;1.87;;;12.60;99.90;;;;;;4977836;28;20490;-84
2021/10/04 09:36:35;;;;;;;1.50;1.40;;;12.60;99.90;;;;;;4980143;28;20448;-84
2021/10/04 09:39:14;;;;;;;1.70;1.60;;;12.50;99.90;;;;;;4979879;28;20448;-85
2021/10/04 09:42:18;;;;;;;1.43;1.33;;;12.40;99.90;;;;;;4979606;28;20456;-85
2021/10/04 09:44:48;;;;;;;1.20;1.10;;;12.40;99.90;;;;;;4980492;28;20512;-85
2021/10/04 09:47:16;;;;;;;1.40;1.27;;;12.50;99.90;;;;;;4979680;28;20474;-85
2021/10/04 09:49:48;;;;;;;1.03;1.03;;;12.50;99.90;;;;;;4980013;28;20886;-84
2021/10/04 09:52:17;;;;;;;1.23;1.17;;;12.50;99.90;;;;;;4979663;28;20479;-84
2021/10/04 09:54:45;;;;;;;1.87;1.17;;;12.50;99.90;;;;;;4980433;28;20845;-83
2021/10/04 09:57:22;;;;;;;1.23;0.90;;;12.60;99.90;;;;;;4979477;28;20467;-84
2021/10/04 09:59:49;;;;;;;1.07;0.90;;;12.80;99.90;;;;;;4979646;28;20961;-84
2021/10/04 10:02:18;;;;;;;1.40;0.90;;;12.90;99.90;;;;;;4979558;28;20476;-84
2021/10/04 10:04:48;;;;;;;0.80;0.80;;;12.90;99.90;;;;;;4979358;28;20527;-83
2021/10/04 10:07:16;;;;;;;1.17;1.00;;;12.90;99.90;;;;;;4981654;28;20838;-82
2021/10/04 10:09:43;;;;;;;0.70;0.57;;;13.20;99.90;;;;;;4982195;28;20539;-82
2021/10/04 10:12:10;;;;;;;0.77;0.77;;;13.20;99.90;;;;;;4982762;28;20475;-84
2021/10/04 10:14:41;;;;;;;0.60;0.50;;;13.30;99.90;;;;;;4982547;28;20463;-83
2021/10/04 10:17:14;;;;;;;0.90;0.90;;;13.40;99.90;;;;;;4981211;28;20452;-84
2021/10/04 10:19:43;;;;;;;1.33;0.73;;;13.60;99.90;;;;;;4981875;28;20447;-83
2021/10/04 10:22:17;;;;;;;1.00;0.90;;;13.80;99.90;;;;;;4979306;28;20472;-84
2021/10/04 10:24:44;;;;;;;0.83;0.83;;;14.10;99.90;;;;;;4979463;28;20460;-85
2021/10/04 10:27:11;;;;;;;0.60;0.60;;;14.40;99.90;;;;;;4978904;28;20536;-84
2021/10/04 10:29:39;;;;;;;0.57;0.57;;;14.30;99.90;;;;;;4978951;28;20480;-85
2021/10/04 10:32:18;;;;;;;0.80;0.70;;;14.40;99.90;;;;;;4978737;28;20804;-85
2021/10/04 10:34:49;;;;;;;0.70;0.70;;;14.50;99.90;;;;;;4978411;28;20443;-82
2021/10/04 10:37:20;;;;;;;1.33;1.23;;;14.70;99.90;;;;;;4978300;28;20460;-82
2021/10/04 10:39:52;;;;;;;1.40;0.73;;;14.70;99.90;;;;;;4978019;28;20474;-81
2021/10/04 10:42:21;;;;;;;0.70;0.70;;;14.70;99.90;;;;;;4978490;28;21004;-82
2021/10/04 10:45:11;;;;;;;0.70;0.70;;;14.80;99.90;;;;;;4978634;28;20491;-82
2021/10/04 10:48:00;;;;;;;0.80;0.60;;;14.60;99.90;;;;;;4977698;28;20471;-81
2021/10/04 10:50:36;;;;;;;0.70;0.70;;;14.90;99.90;;;;;;4978029;28;20452;-82
2021/10/04 10:53:17;;;;;;;1.57;0.80;;;15.20;99.90;;;;;;4977599;28;20479;-82
2021/10/04 10:55:45;;;;;;;0.60;0.60;;;15.40;99.90;;;;;;4977993;28;20479;-82
2021/10/04 10:58:13;;;;;;;0.50;0.50;;;15.60;99.90;;;;;;4978014;28;20449;-81
2021/10/04 11:00:43;;;;;;;0.50;0.50;;;15.70;99.90;;;;;;4978476;28;20446;-83
2021/10/04 11:03:14;;;;;;;0.77;0.77;;;15.80;99.90;;;;;;4977788;28;20500;-82
2021/10/04 11:05:56;;;;;;;0.30;0.30;;;15.60;99.90;;;;;;4978046;28;20903;-82
2021/10/04 11:08:42;;;;;;;0.50;0.50;;;15.50;99.90;;;;;;4977775;28;20552;-83
2021/10/04 11:11:16;;;;;;;0.50;0.50;;;15.50;99.90;;;;;;4978052;28;20455;-82
2021/10/04 11:13:58;;;;;;;0.70;0.70;;;15.20;99.90;;;;;;4982135;28;20473;-82
2021/10/04 11:16:43;;;;;;;0.67;0.67;;;15.40;99.90;;;;;;4981637;28;20463;-82
2021/10/04 11:19:25;;;;;;;0.80;0.80;;;15.50;99.90;;;;;;4981567;28;20878;-82
2021/10/04 11:21:52;;;;;;;0.70;0.57;;;15.80;99.90;;;;;;4981738;28;20460;-82
2021/10/04 11:24:21;;;;;;;0.70;0.70;;;16.00;99.90;;;;;;4981608;28;20480;-82
2021/10/04 11:26:49;;;;;;;0.50;0.50;;;16.10;99.90;;;;;;4982184;28;20453;-81
2021/10/04 11:29:21;;;;;;;1.33;0.60;;;16.20;99.90;;;;;;4982110;28;20488;-82
2021/10/04 11:31:48;;;;;;;0.90;0.83;;;16.20;99.90;;;;;;4982149;28;20462;-82
2021/10/04 11:34:17;;;;;;;1.00;0.70;;;16.30;99.90;;;;;;4981593;28;20461;-82
2021/10/04 11:36:46;;;;;;;1.83;0.90;;;16.40;99.90;;;;;;4981721;28;20453;-82
2021/10/04 11:39:15;;;;;;;0.77;0.77;;;16.40;99.90;;;;;;4981937;28;20454;-82
2021/10/04 11:41:46;;;;;;;0.90;0.90;;;16.40;99.90;;;;;;4981542;28;20476;-83
2021/10/04 11:44:15;;;;;;;0.73;0.73;;;16.50;99.90;;;;;;4981942;28;20481;-82
2021/10/04 11:46:45;;;;;;;0.70;0.70;;;16.60;99.90;;;;;;4981795;28;20466;-82
2021/10/04 11:49:14;;;;;;;0.80;0.80;;;16.70;99.90;;;;;;4981713;28;20489;-83
2021/10/04 11:51:47;;;;;;;1.17;0.80;;;16.80;99.90;;;;;;4981577;28;20449;-83
2021/10/04 11:54:28;;;;;;;1.50;0.83;;;16.80;99.90;;;;;;4981753;28;20469;-83
2021/10/04 11:56:57;;;;;;;0.60;0.57;;;16.70;99.90;;;;;;4980813;28;20462;-83
2021/10/04 11:59:23;;;;;;;1.90;1.53;;;16.70;99.90;;;;;;4981210;28;20829;-83
2021/10/04 12:01:50;;;;;;;1.23;1.13;;;16.80;99.90;;;;;;4981933;28;20803;-84
2021/10/04 12:04:17;;;;;;;1.40;1.30;;;16.80;99.90;;;;;;4982179;28;20460;-86
2021/10/04 12:06:46;;;;;;;1.47;0.90;;;16.80;99.90;;;;;;4981429;28;20454;-85
2021/10/04 12:09:15;;;;;;;2.50;1.47;;;16.80;99.90;;;;;;4982557;28;20496;-84
2021/10/04 12:11:49;;;;;;;1.07;1.00;;;16.70;99.90;;;;;;4982546;28;20459;-84
2021/10/04 12:14:18;;;;;;;0.80;0.80;;;16.70;99.90;;;;;;4983187;28;20457;-82
2021/10/04 12:16:45;;;;;;;0.50;0.50;;;16.80;99.90;;;;;;4997016;28;20438;-83
2021/10/04 12:19:12;;;;;;;0.47;0.47;;;16.80;99.90;;;;;;4995160;28;20475;-81
2021/10/04 12:21:44;;;;;;;0.77;0.77;;;16.80;99.90;;;;;;4996340;28;20443;-84
2021/10/04 12:24:16;;;;;;;2.20;0.73;;;16.90;99.90;;;;;;4982304;28;20458;-82
2021/10/04 12:26:54;;;;;;;1.07;0.50;;;17.00;99.90;;;;;;4981200;28;20457;-82
2021/10/04 12:29:35;;;;;;;1.00;1.00;;;17.00;99.90;;;;;;4981553;28;20485;-82
2021/10/04 12:32:35;;;;;;;1.13;0.90;;;17.10;99.90;;;;;;4981251;28;20477;-82
2021/10/04 12:35:08;;;;;;;1.10;1.00;;;17.20;99.90;;;;;;4920863;29;20637;-82
2021/10/04 12:37:37;;;;;;;1.13;1.00;;;17.30;99.90;;;;;;4971240;28;20462;-82
2021/10/04 12:40:30;;;;;;;0.90;0.90;;;17.40;99.90;;;;;;4981477;28;20442;-81
2021/10/04 12:43:04;;;;;;;1.10;1.07;;;17.50;99.90;;;;;;4981307;28;20485;-82
2021/10/04 12:45:32;;;;;;;1.00;1.00;;;17.60;99.90;;;;;;4980778;28;20455;-82
2021/10/04 12:48:02;;;;;;;1.33;1.23;;;17.80;99.90;;;;;;4980834;28;20467;-82
2021/10/04 12:50:31;;;;;;;1.50;1.40;;;18.00;99.90;;;;;;4980553;28;20851;-82
2021/10/04 12:53:18;;;;;;;1.27;1.17;;;18.10;99.90;;;;;;4980752;28;20482;-82
2021/10/04 12:55:50;;;;;;;1.50;0.93;;;18.00;99.90;;;;;;4980736;28;20455;-82